createdAt,value
2019-03-03T00:01:40.201Z,7.30
2019-03-03T00:04:09.924Z,7.30
2019-03-03T00:06:39.816Z,7.30
2019-03-03T00:09:09.596Z,7.20
2019-03-03T00:11:39.513Z,7.30
2019-03-03T00:14:09.287Z,7.20
2019-03-03T00:16:39.250Z,7.10
2019-03-03T00:19:09.119Z,7.20
2019-03-03T00:21:38.937Z,7.20
2019-03-03T00:24:08.807Z,7.10
2019-03-03T00:26:39.003Z,7.10
2019-03-03T00:29:08.930Z,7.10
2019-03-03T00:31:40.777Z,7.10
2019-03-03T00:34:10.558Z,7.10
2019-03-03T00:37:09.637Z,7.20
2019-03-03T00:39:47.183Z,7.20
2019-03-03T00:42:38.691Z,7.20
2019-03-03T00:45:17.035Z,7.30
2019-03-03T00:48:09.468Z,7.30
2019-03-03T00:51:06.434Z,7.20
2019-03-03T00:53:53.518Z,7.30
2019-03-03T00:56:28.638Z,7.30
2019-03-03T00:59:32.478Z,7.40
2019-03-03T01:02:30.307Z,7.40
2019-03-03T01:05:17.970Z,7.40
2019-03-03T01:08:06.630Z,7.40
2019-03-03T01:10:53.740Z,7.40
2019-03-03T01:13:37.814Z,7.40
2019-03-03T01:16:36.078Z,7.40
2019-03-03T01:19:27.721Z,7.30
2019-03-03T01:22:19.523Z,7.30
2019-03-03T01:25:06.163Z,7.40
2019-03-03T01:27:36.005Z,7.40
2019-03-03T01:30:08.294Z,7.30
2019-03-03T01:32:38.190Z,7.30
2019-03-03T01:35:08.892Z,7.40
2019-03-03T01:37:38.731Z,7.40
2019-03-03T01:40:09.070Z,7.40
2019-03-03T01:42:38.966Z,7.40
2019-03-03T01:45:10.508Z,7.40
2019-03-03T01:47:40.412Z,7.40
2019-03-03T01:50:10.742Z,7.40
2019-03-03T01:52:40.726Z,7.30
2019-03-03T01:55:10.915Z,7.40
2019-03-03T01:57:40.966Z,7.40
2019-03-03T02:00:21.393Z,7.50
2019-03-03T02:02:51.356Z,7.50
2019-03-03T02:05:21.148Z,7.50
2019-03-03T02:07:50.998Z,7.60
2019-03-03T02:10:23.338Z,7.60
2019-03-03T02:12:53.246Z,7.50
2019-03-03T02:15:23.286Z,7.50
2019-03-03T02:17:53.276Z,7.50
2019-03-03T02:20:23.245Z,7.50
2019-03-03T02:22:53.153Z,7.50
2019-03-03T02:25:22.969Z,7.50
2019-03-03T02:27:52.884Z,7.50
2019-03-03T02:30:22.881Z,7.50
2019-03-03T02:32:52.662Z,7.40
2019-03-03T02:35:22.608Z,7.40
2019-03-03T02:37:52.474Z,7.40
2019-03-03T02:40:22.243Z,7.40
2019-03-03T02:42:52.065Z,7.40
2019-03-03T02:45:21.942Z,7.50
2019-03-03T02:47:52.259Z,7.40
2019-03-03T02:50:22.094Z,7.40
2019-03-03T02:52:51.906Z,7.40
2019-03-03T02:55:21.837Z,7.40
2019-03-03T02:57:51.740Z,7.40
2019-03-03T03:00:22.301Z,7.40
2019-03-03T03:02:53.676Z,7.50
2019-03-03T03:05:42.621Z,7.50
2019-03-03T03:08:15.830Z,7.50
2019-03-03T03:10:54.869Z,7.60
2019-03-03T03:13:49.291Z,7.40
2019-03-03T03:16:34.022Z,7.40
2019-03-03T03:19:15.521Z,7.40
2019-03-03T03:22:07.206Z,7.40
2019-03-03T03:25:01.686Z,7.40
2019-03-03T03:28:02.566Z,7.50
2019-03-03T03:30:48.551Z,7.60
2019-03-03T03:33:30.062Z,7.50
2019-03-03T03:36:07.762Z,7.50
2019-03-03T03:38:44.438Z,7.50
2019-03-03T03:41:19.152Z,7.50
2019-03-03T03:43:58.619Z,7.60
2019-03-03T03:46:56.070Z,7.50
2019-03-03T03:49:47.705Z,7.40
2019-03-03T03:52:42.558Z,7.50
2019-03-03T03:55:29.759Z,7.40
2019-03-03T03:58:23.153Z,7.50
2019-03-03T04:01:09.868Z,7.50
2019-03-03T04:03:59.345Z,7.50
2019-03-03T04:06:46.604Z,7.50
2019-03-03T04:09:39.049Z,7.50
2019-03-03T04:12:42.970Z,7.50
2019-03-03T04:15:40.310Z,7.50
2019-03-03T04:18:35.120Z,7.60
2019-03-03T04:21:20.287Z,7.50
2019-03-03T04:24:24.191Z,7.50
2019-03-03T04:27:18.733Z,7.50
2019-03-03T04:30:10.202Z,7.50
2019-03-03T04:32:59.015Z,7.60
2019-03-03T04:35:50.547Z,7.50
2019-03-03T04:38:33.155Z,7.50
2019-03-03T04:41:21.035Z,7.40
2019-03-03T04:44:01.648Z,7.40
2019-03-03T04:46:53.247Z,7.50
2019-03-03T04:49:40.613Z,7.50
2019-03-03T04:52:21.978Z,7.50
2019-03-03T04:55:16.749Z,7.50
2019-03-03T04:58:00.910Z,7.40
2019-03-03T05:00:42.096Z,7.40
2019-03-03T05:03:30.817Z,7.40
2019-03-03T05:06:07.375Z,7.50
2019-03-03T05:08:44.558Z,7.40
2019-03-03T05:11:59.093Z,7.40
2019-03-03T05:14:34.545Z,7.40
2019-03-03T05:17:10.586Z,7.40
2019-03-03T05:19:45.729Z,7.40
2019-03-03T05:22:15.534Z,7.50
2019-03-03T05:24:45.544Z,7.50
2019-03-03T05:27:15.462Z,7.50
2019-03-03T05:29:45.330Z,7.40
2019-03-03T05:32:15.105Z,7.40
2019-03-03T05:34:44.991Z,7.40
2019-03-03T05:37:14.942Z,7.40
2019-03-03T05:39:44.769Z,7.40
2019-03-03T05:42:14.571Z,7.40
2019-03-03T05:44:44.378Z,7.50
2019-03-03T05:47:14.220Z,7.40
2019-03-03T05:49:43.965Z,7.40
2019-03-03T05:52:13.882Z,7.40
2019-03-03T05:54:43.678Z,7.40
2019-03-03T05:57:13.608Z,7.50
2019-03-03T05:59:43.366Z,7.50
2019-03-03T06:02:13.590Z,7.50
2019-03-03T06:04:43.470Z,7.40
2019-03-03T06:07:13.362Z,7.50
2019-03-03T06:09:43.103Z,7.50
2019-03-03T06:12:13.061Z,7.50
2019-03-03T06:14:42.883Z,7.50
2019-03-03T06:17:12.738Z,7.40
2019-03-03T06:19:42.576Z,7.50
2019-03-03T06:22:12.387Z,7.50
2019-03-03T06:24:42.226Z,7.60
2019-03-03T06:27:12.058Z,7.60
2019-03-03T06:29:41.863Z,7.60
2019-03-03T06:32:11.660Z,7.60
2019-03-03T06:34:41.462Z,7.60
2019-03-03T06:37:11.458Z,7.70
2019-03-03T06:39:41.402Z,7.70
2019-03-03T06:42:11.271Z,7.80
2019-03-03T06:44:41.150Z,7.80
2019-03-03T06:47:10.943Z,7.80
2019-03-03T06:49:40.737Z,7.90
2019-03-03T06:52:10.562Z,8.00
2019-03-03T06:54:40.363Z,7.90
2019-03-03T06:57:11.269Z,8.00
2019-03-03T06:59:41.014Z,8.00
2019-03-03T07:02:10.874Z,8.10
2019-03-03T07:04:40.696Z,8.10
2019-03-03T07:07:10.527Z,8.10
2019-03-03T07:09:40.288Z,8.10
2019-03-03T07:12:10.134Z,8.20
2019-03-03T07:14:40.039Z,8.30
2019-03-03T07:17:09.907Z,8.70
2019-03-03T07:19:39.722Z,9.00
2019-03-03T07:22:09.595Z,8.90
2019-03-03T07:24:39.448Z,8.90
2019-03-03T07:27:09.314Z,8.90
2019-03-03T07:29:39.186Z,8.90
2019-03-03T07:32:08.990Z,8.90
2019-03-03T07:34:38.819Z,9.00
2019-03-03T07:37:08.572Z,9.20
2019-03-03T07:39:41.485Z,9.40
2019-03-03T07:42:11.404Z,9.40
2019-03-03T07:44:41.574Z,9.50
2019-03-03T07:47:11.363Z,9.40
2019-03-03T07:49:41.194Z,9.40
2019-03-03T07:52:10.994Z,9.30
2019-03-03T07:54:40.875Z,9.30
2019-03-03T07:57:10.818Z,9.10
2019-03-03T07:59:40.646Z,9.10
2019-03-03T08:02:10.546Z,9.20
2019-03-03T08:04:40.339Z,9.20
2019-03-03T08:07:10.235Z,9.30
2019-03-03T08:09:40.037Z,9.30
2019-03-03T08:12:09.890Z,9.50
2019-03-03T08:14:39.675Z,9.60
2019-03-03T08:17:09.523Z,9.70
2019-03-03T08:19:39.258Z,9.70
2019-03-03T08:22:09.120Z,9.90
2019-03-03T08:24:38.926Z,10.20
2019-03-03T08:27:08.738Z,10.60
2019-03-03T08:29:38.554Z,11.10
2019-03-03T08:32:08.528Z,11.20
2019-03-03T08:34:38.422Z,11.50
2019-03-03T08:37:08.297Z,11.60
2019-03-03T08:39:38.198Z,11.60
2019-03-03T08:42:35.911Z,11.60
2019-03-03T08:45:25.021Z,11.60
2019-03-03T08:47:58.415Z,11.50
2019-03-03T08:50:45.700Z,11.40
2019-03-03T08:53:34.393Z,11.30
2019-03-03T08:56:23.783Z,11.10
2019-03-03T08:59:03.122Z,11.10
2019-03-03T09:01:51.829Z,11.00
2019-03-03T09:04:37.511Z,10.90
2019-03-03T09:07:16.738Z,10.90
2019-03-03T09:10:11.244Z,10.90
2019-03-03T09:12:50.163Z,11.20
2019-03-03T09:15:37.572Z,11.50
2019-03-03T09:18:24.793Z,11.70
2019-03-03T09:21:01.275Z,11.90
2019-03-03T09:23:47.327Z,12.20
2019-03-03T09:26:34.629Z,12.30
2019-03-03T09:29:16.514Z,12.40
2019-03-03T09:32:20.032Z,12.50
2019-03-03T09:35:06.032Z,12.50
2019-03-03T09:37:57.510Z,12.50
2019-03-03T09:40:40.268Z,12.30
2019-03-03T09:43:40.799Z,12.20
2019-03-03T09:46:27.924Z,12.30
2019-03-03T09:49:17.189Z,12.30
2019-03-03T09:52:04.026Z,12.50
2019-03-03T09:54:42.110Z,12.20
2019-03-03T09:57:29.380Z,12.20
2019-03-03T10:00:16.447Z,12.20
2019-03-03T10:03:07.534Z,12.30
2019-03-03T10:05:48.129Z,12.30
2019-03-03T10:08:51.927Z,12.40
2019-03-03T10:11:40.683Z,12.50
2019-03-03T10:14:27.820Z,12.60
2019-03-03T10:17:22.815Z,12.70
2019-03-03T10:20:29.302Z,12.70
2019-03-03T10:23:26.839Z,12.70
2019-03-03T10:26:13.900Z,12.90
2019-03-03T10:29:02.617Z,13.00
2019-03-03T10:31:49.698Z,13.20
2019-03-03T10:34:26.302Z,13.30
2019-03-03T10:37:30.253Z,13.40
2019-03-03T10:40:24.774Z,13.40
2019-03-03T10:43:05.338Z,13.30
2019-03-03T10:45:54.023Z,13.40
2019-03-03T10:48:52.384Z,13.50
2019-03-03T10:51:39.424Z,13.50
2019-03-03T10:54:28.130Z,13.60
2019-03-03T10:57:34.699Z,13.60
2019-03-03T11:00:22.150Z,13.60
2019-03-03T11:03:06.274Z,13.60
2019-03-03T11:05:48.500Z,13.80
2019-03-03T11:08:35.967Z,13.80
2019-03-03T11:11:22.037Z,13.70
2019-03-03T11:14:10.455Z,13.60
2019-03-03T11:16:52.125Z,13.60
2019-03-03T11:19:39.406Z,13.50
2019-03-03T11:22:16.809Z,13.60
2019-03-03T11:25:06.496Z,13.70
2019-03-03T11:27:44.793Z,13.80
2019-03-03T11:30:24.195Z,13.90
2019-03-03T11:33:18.961Z,13.90
2019-03-03T11:36:16.977Z,13.80
2019-03-03T11:39:04.099Z,13.80
2019-03-03T11:41:43.371Z,13.80
2019-03-03T11:44:32.369Z,13.70
2019-03-03T11:47:27.094Z,13.50
2019-03-03T11:50:15.846Z,13.40
2019-03-03T11:53:01.908Z,13.30
2019-03-03T11:55:40.524Z,13.30
2019-03-03T11:58:28.062Z,13.30
2019-03-03T12:01:28.671Z,13.30
2019-03-03T12:04:29.544Z,13.30
2019-03-03T12:07:21.178Z,13.40
2019-03-03T12:10:08.255Z,13.40
2019-03-03T12:12:57.035Z,13.50
2019-03-03T12:15:48.623Z,13.90
2019-03-03T12:18:37.478Z,14.20
2019-03-03T12:21:14.141Z,14.30
2019-03-03T12:24:08.854Z,14.30
2019-03-03T12:27:15.373Z,14.30
2019-03-03T12:29:56.283Z,14.30
2019-03-03T12:32:31.962Z,14.40
2019-03-03T12:35:18.935Z,14.30
2019-03-03T12:38:10.609Z,14.00
2019-03-03T12:40:59.459Z,14.00
2019-03-03T12:43:56.998Z,14.00
2019-03-03T12:46:45.740Z,13.90
2019-03-03T12:49:26.394Z,13.80
2019-03-03T12:52:15.023Z,14.00
2019-03-03T12:55:06.402Z,14.10
2019-03-03T12:58:04.035Z,14.30
2019-03-03T13:01:04.811Z,14.40
2019-03-03T13:03:44.802Z,14.60
2019-03-03T13:06:33.560Z,14.60
2019-03-03T13:09:37.087Z,14.60
2019-03-03T13:12:25.749Z,14.40
2019-03-03T13:15:14.634Z,14.30
2019-03-03T13:18:02.206Z,14.10
2019-03-03T13:20:39.434Z,14.00
2019-03-03T13:23:21.373Z,13.80
2019-03-03T13:26:13.400Z,13.80
2019-03-03T13:29:16.494Z,13.90
2019-03-03T13:32:04.316Z,13.90
2019-03-03T13:34:56.307Z,13.90
2019-03-03T13:38:00.234Z,13.90
2019-03-03T13:40:47.855Z,14.00
2019-03-03T13:43:17.818Z,14.00
2019-03-03T13:45:47.779Z,14.10
2019-03-03T13:48:17.798Z,14.20
2019-03-03T13:50:48.021Z,14.10
2019-03-03T13:53:18.341Z,13.90
2019-03-03T13:55:48.488Z,13.90
2019-03-03T13:58:18.286Z,14.00
2019-03-03T14:00:48.224Z,14.20
2019-03-03T14:03:18.017Z,14.40
2019-03-03T14:05:47.978Z,14.50
2019-03-03T14:08:17.898Z,14.50
2019-03-03T14:10:47.721Z,14.30
2019-03-03T14:13:17.688Z,14.10
2019-03-03T14:15:47.629Z,13.90
2019-03-03T14:18:17.651Z,13.90
2019-03-03T14:20:47.647Z,13.70
2019-03-03T14:23:17.769Z,13.70
2019-03-03T14:25:47.634Z,13.50
2019-03-03T14:28:17.591Z,13.40
2019-03-03T14:30:47.620Z,13.30
2019-03-03T14:33:17.918Z,13.20
2019-03-03T14:35:48.110Z,13.10
2019-03-03T14:38:17.955Z,13.10
2019-03-03T14:40:47.843Z,13.00
2019-03-03T14:43:17.754Z,13.00
2019-03-03T14:45:47.628Z,13.10
2019-03-03T14:48:17.567Z,13.10
2019-03-03T14:50:48.469Z,13.10
2019-03-03T14:53:18.411Z,13.10
2019-03-03T14:55:49.439Z,13.10
2019-03-03T14:58:19.546Z,13.10
2019-03-03T15:00:49.583Z,13.00
2019-03-03T15:03:20.269Z,13.00
2019-03-03T15:05:50.347Z,13.00
2019-03-03T15:08:20.480Z,13.00
2019-03-03T15:10:50.568Z,13.00
2019-03-03T15:13:20.931Z,13.00
2019-03-03T15:15:50.659Z,13.00
2019-03-03T15:18:20.659Z,12.90
2019-03-03T15:20:50.567Z,12.90
2019-03-03T15:23:20.537Z,12.80
2019-03-03T15:25:50.512Z,12.80
2019-03-03T15:28:20.411Z,12.80
2019-03-03T15:30:50.378Z,12.80
2019-03-03T15:33:23.081Z,12.80
2019-03-03T15:35:52.943Z,12.80
2019-03-03T15:38:22.710Z,12.80
2019-03-03T15:40:52.805Z,12.80
2019-03-03T15:43:22.624Z,12.80
2019-03-03T15:45:52.612Z,12.70
2019-03-03T15:48:22.611Z,12.80
2019-03-03T15:50:52.638Z,12.80
2019-03-03T15:53:22.378Z,12.80
2019-03-03T15:55:52.546Z,12.80
2019-03-03T15:58:25.242Z,12.80
2019-03-03T16:00:55.194Z,12.80
2019-03-03T16:03:25.176Z,12.70
2019-03-03T16:05:55.083Z,12.80
2019-03-03T16:08:25.092Z,12.70
2019-03-03T16:10:58.161Z,12.60
2019-03-03T16:13:28.866Z,12.60
2019-03-03T16:16:00.608Z,12.60
2019-03-03T16:18:31.326Z,12.50
2019-03-03T16:21:07.064Z,12.50
2019-03-03T16:23:38.158Z,12.60
2019-03-03T16:26:08.537Z,12.70
2019-03-03T16:28:40.426Z,12.70
2019-03-03T16:31:11.546Z,12.60
2019-03-03T16:33:42.154Z,12.60
2019-03-03T16:36:12.683Z,12.70
2019-03-03T16:38:45.903Z,12.60
2019-03-03T16:41:16.763Z,12.60
2019-03-03T16:43:47.128Z,12.50
2019-03-03T16:46:18.159Z,12.50
2019-03-03T16:48:48.716Z,12.50
2019-03-03T16:51:19.462Z,12.40
2019-03-03T16:53:50.169Z,12.30
2019-03-03T16:56:21.174Z,12.30
2019-03-03T16:58:51.786Z,12.20
2019-03-03T17:01:25.188Z,12.20
2019-03-03T17:03:58.515Z,12.20
2019-03-03T17:06:29.250Z,12.20
2019-03-03T17:08:59.129Z,12.20
2019-03-03T17:11:29.094Z,12.20
2019-03-03T17:13:59.390Z,12.20
2019-03-03T17:16:29.333Z,12.20
2019-03-03T17:18:59.579Z,12.10
2019-03-03T17:21:29.516Z,12.10
2019-03-03T17:23:59.438Z,12.00
2019-03-03T17:26:29.585Z,12.00
2019-03-03T17:28:59.736Z,11.90
2019-03-03T17:31:29.799Z,12.00
2019-03-03T17:33:59.933Z,11.90
2019-03-03T17:36:29.867Z,11.90
2019-03-03T17:38:59.922Z,11.90
2019-03-03T17:41:30.210Z,11.90
2019-03-03T17:44:00.190Z,11.90
2019-03-03T17:46:30.109Z,11.90
2019-03-03T17:49:00.220Z,11.90
2019-03-03T17:51:30.102Z,11.80
2019-03-03T17:54:00.129Z,11.80
2019-03-03T17:56:30.358Z,11.80
2019-03-03T17:59:01.207Z,11.80
2019-03-03T18:01:31.155Z,11.80
2019-03-03T18:04:01.226Z,11.80
2019-03-03T18:06:38.538Z,11.70
2019-03-03T18:09:02.931Z,11.60
2019-03-03T18:11:35.027Z,11.50
2019-03-03T18:14:05.305Z,11.50
2019-03-03T18:16:35.269Z,11.50
2019-03-03T18:19:05.308Z,11.40
2019-03-03T18:21:35.167Z,11.30
2019-03-03T18:24:04.973Z,11.30
2019-03-03T18:26:34.778Z,11.30
2019-03-03T18:29:04.852Z,11.30
2019-03-03T18:31:34.703Z,11.20
2019-03-03T18:34:04.797Z,11.30
2019-03-03T18:36:35.067Z,11.20
2019-03-03T18:39:07.491Z,11.10
2019-03-03T18:41:39.698Z,11.10
2019-03-03T18:44:09.807Z,11.00
2019-03-03T18:46:41.604Z,10.90
2019-03-03T18:49:11.569Z,10.90
2019-03-03T18:51:41.777Z,10.90
2019-03-03T18:54:14.999Z,10.80
2019-03-03T18:56:47.578Z,10.80
2019-03-03T18:59:19.046Z,10.90
2019-03-03T19:01:49.818Z,10.90
2019-03-03T19:04:20.905Z,10.90
2019-03-03T19:06:51.661Z,10.90
2019-03-03T19:09:25.524Z,10.90
2019-03-03T19:11:56.088Z,10.90
2019-03-03T19:14:28.539Z,10.90
2019-03-03T19:17:00.516Z,10.90
2019-03-03T19:19:31.886Z,10.90
2019-03-03T19:22:04.723Z,10.90
2019-03-03T19:24:35.501Z,10.90
2019-03-03T19:27:06.249Z,10.90
2019-03-03T19:29:38.558Z,10.90
2019-03-03T19:32:14.098Z,10.80
2019-03-03T19:34:44.843Z,10.80
2019-03-03T19:37:15.372Z,10.70
2019-03-03T19:39:47.351Z,10.70
2019-03-03T19:42:18.272Z,10.60
2019-03-03T19:44:50.300Z,10.50
2019-03-03T19:47:21.275Z,10.50
2019-03-03T19:49:53.635Z,10.40
2019-03-03T19:52:24.272Z,10.30
2019-03-03T19:54:55.170Z,10.30
2019-03-03T19:57:29.162Z,10.20
2019-03-03T20:00:01.986Z,10.20
2019-03-03T20:02:32.745Z,10.10
2019-03-03T20:05:04.343Z,10.00
2019-03-03T20:07:35.544Z,10.00
2019-03-03T20:10:08.466Z,9.90
2019-03-03T20:12:39.633Z,9.80
2019-03-03T20:15:11.128Z,9.70
2019-03-03T20:17:42.876Z,9.60
2019-03-03T20:20:15.379Z,9.40
2019-03-03T20:22:51.338Z,9.20
2019-03-03T20:25:22.579Z,9.20
2019-03-03T20:27:53.163Z,9.00
2019-03-03T20:30:25.487Z,8.90
2019-03-03T20:32:55.878Z,8.70
2019-03-03T20:35:27.049Z,8.60
2019-03-03T20:37:57.396Z,8.50
2019-03-03T20:40:30.667Z,8.40
2019-03-03T20:43:01.425Z,8.30
2019-03-03T20:45:32.906Z,8.20
2019-03-03T20:48:04.168Z,8.20
2019-03-03T20:50:35.261Z,8.20
2019-03-03T20:53:10.313Z,8.20
2019-03-03T20:55:41.270Z,8.20
2019-03-03T20:58:12.207Z,8.30
2019-03-03T21:00:43.339Z,8.20
2019-03-03T21:03:14.185Z,8.30
2019-03-03T21:05:45.125Z,8.30
2019-03-03T21:08:16.558Z,8.30
2019-03-03T21:10:47.473Z,8.40
2019-03-03T21:13:18.540Z,8.40
2019-03-03T21:15:51.584Z,8.40
2019-03-03T21:18:21.888Z,8.50
2019-03-03T21:20:53.015Z,8.60
2019-03-03T21:23:24.022Z,8.50
2019-03-03T21:25:56.524Z,8.50
2019-03-03T21:28:28.382Z,8.50
2019-03-03T21:30:58.214Z,8.50
2019-03-03T21:33:28.304Z,8.40
2019-03-03T21:35:58.178Z,8.50
2019-03-03T21:38:28.114Z,8.50
2019-03-03T21:40:58.017Z,8.50
2019-03-03T21:43:27.869Z,8.50
2019-03-03T21:45:57.820Z,8.60
2019-03-03T21:48:27.659Z,8.60
2019-03-03T21:50:57.486Z,8.60
2019-03-03T21:53:29.935Z,8.60
2019-03-03T21:56:01.906Z,8.60
2019-03-03T21:58:33.130Z,8.60
2019-03-03T22:01:04.304Z,8.80
2019-03-03T22:03:34.679Z,8.80
2019-03-03T22:06:05.690Z,8.80
2019-03-03T22:08:39.988Z,8.90
2019-03-03T22:11:10.910Z,8.90
2019-03-03T22:13:42.494Z,8.90
2019-03-03T22:16:13.262Z,9.00
2019-03-03T22:18:43.908Z,9.00
2019-03-03T22:21:17.972Z,9.00
2019-03-03T22:23:49.145Z,9.00
2019-03-03T22:26:20.921Z,9.00
2019-03-03T22:28:51.542Z,9.00
2019-03-03T22:31:22.110Z,9.00
2019-03-03T22:33:52.533Z,9.10
2019-03-03T22:36:22.924Z,9.00
2019-03-03T22:38:52.985Z,9.00
2019-03-03T22:41:23.207Z,9.00
2019-03-03T22:43:53.202Z,9.10
2019-03-03T22:46:23.541Z,9.20
2019-03-03T22:48:58.983Z,9.20
2019-03-03T22:51:30.903Z,9.30
2019-03-03T22:54:02.820Z,9.20
2019-03-03T22:56:34.113Z,9.20
2019-03-03T22:59:06.539Z,9.30
2019-03-03T23:01:48.841Z,9.30
2019-03-03T23:04:54.824Z,9.20
2019-03-03T23:07:59.737Z,9.20
2019-03-03T23:10:47.937Z,9.20
2019-03-03T23:14:17.095Z,9.20
2019-03-03T23:17:11.313Z,9.20
2019-03-03T23:19:46.986Z,9.20
2019-03-03T23:22:53.596Z,9.20
2019-03-03T23:25:55.131Z,9.20
2019-03-03T23:28:28.117Z,9.30
2019-03-03T23:30:59.297Z,9.30
2019-03-03T23:33:30.777Z,9.20
2019-03-03T23:36:01.145Z,9.30
2019-03-03T23:38:33.507Z,9.20
2019-03-03T23:41:04.506Z,9.20
2019-03-03T23:43:34.398Z,9.30
2019-03-03T23:46:04.278Z,9.30
2019-03-03T23:48:35.370Z,9.30
2019-03-03T23:51:05.186Z,9.30
2019-03-03T23:53:34.961Z,9.30
2019-03-03T23:56:04.998Z,9.30
2019-03-03T23:58:35.100Z,9.40
